^^
Station Historical Data
Daily Summary for June 17, 2017 Units:  Metric    English   Both
« Previous Day
Next Day »
Daily Weekly Monthly Yearly Custom
  High: Low: Average:
Temperature: 20 °C 5.6 °C 11.2 °C
Dew Point: 6.1 °C -3.5 °C 0.4 °C
Humidity: 66% 34% 48%
Wind Speed: 22.7km/h 0km/h 5.6km/h
Wind Gust: 25.7km/h - -
Wind- - WNW
Pressure: 1020.9 hPa 1017.2 hPa -
Precipitation: 0 mm    
Historical Graphs
 
 
Tabular Data for June 17, 2017
Time Temperature Dew Point Pressure Wind Wind Speed Wind Gust Humidity Rainfall Rate (Hourly) solar Conditions
00:08 9.8 °C -2.8 °C 1018.2 hPa Calm     41% 0 mm 0.0 W/m2
00:13 9.8 °C -2.8 °C 1018.2 hPa Calm     41% 0 mm 0.0 W/m2
00:18 9.7 °C -2.9 °C 1018.2 hPa Calm     41% 0 mm 0.0 W/m2
00:29 9.5 °C -2.8 °C 1018.2 hPa Calm     42% 0 mm 0.0 W/m2
00:34 9.5 °C -2.5 °C 1018.2 hPa Calm     43% 0 mm 0.0 W/m2
00:39 9.4 °C -2.6 °C 1018.2 hPa Calm     43% 0 mm 0.0 W/m2
00:49 9.3 °C -2.6 °C 1018.2 hPa Calm     43% 0 mm 0.0 W/m2
00:54 9.2 °C -2.4 °C 1018.2 hPa Calm     44% 0 mm 0.0 W/m2
00:59 9.2 °C -2.4 °C 1018.2 hPa Calm     44% 0 mm 0.0 W/m2
01:05 9.1 °C -2.5 °C 1018.2 hPa Calm     44% 0 mm 0.0 W/m2
01:10 8.8 °C -3.1 °C 1018.2 hPa Calm     43% 0 mm 0.0 W/m2
01:15 8.9 °C -3 °C 1018.2 hPa Calm     43% 0 mm 0.0 W/m2
01:20 8.8 °C -3.1 °C 1018.2 hPa Calm     43% 0 mm 0.0 W/m2
01:30 8.5 °C -3.1 °C 1018.2 hPa Calm     44% 0 mm 0.0 W/m2
01:35 8.5 °C -3.1 °C 1018.2 hPa Calm     44% 0 mm 0.0 W/m2
01:40 8.4 °C -3.5 °C 1018.2 hPa Calm     43% 0 mm 0.0 W/m2
01:45 8.2 °C -3.3 °C 1018.2 hPa Calm     44% 0 mm 0.0 W/m2
01:50 8.1 °C -3.4 °C 1018.2 hPa Calm     44% 0 mm 0.0 W/m2
01:55 7.9 °C -3.3 °C 1018.2 hPa Calm   6.4 km/h 45% 0 mm 0.0 W/m2
02:01 7.8 °C -3.4 °C 1018.2 hPa Calm   9.7 km/h 45% 0 mm 0.0 W/m2
02:06 7.9 °C -3 °C 1018.2 hPa Calm     46% 0 mm 0.0 W/m2
02:11 7.9 °C -3 °C 1018.2 hPa Calm     46% 0 mm 0.0 W/m2
02:16 7.9 °C -3 °C 1018.2 hPa Calm     46% 0 mm 0.0 W/m2
02:21 8 °C -2.9 °C 1018.2 hPa Calm     46% 0 mm 0.0 W/m2
02:26 8 °C -2.9 °C 1017.8 hPa Calm     46% 0 mm 0.0 W/m2
02:31 8 °C -2.9 °C 1017.8 hPa Calm     46% 0 mm 0.0 W/m2
02:37 8.2 °C -2.7 °C 1017.8 hPa Calm     46% 0 mm 0.0 W/m2
02:42 8.3 °C -2.9 °C 1017.8 hPa Calm     45% 0 mm 0.0 W/m2
02:47 8.3 °C -2.9 °C 1017.8 hPa Calm     45% 0 mm 0.0 W/m2
02:52 8.2 °C -3 °C 1017.8 hPa Calm     45% 0 mm 0.0 W/m2
02:57 8.1 °C -2.8 °C 1017.8 hPa Calm     46% 0 mm 0.0 W/m2
03:02 8.1 °C -2.8 °C 1017.8 hPa Calm     46% 0 mm 0.0 W/m2
03:07 8.1 °C -2.8 °C 1018.2 hPa Calm     46% 0 mm 0.0 W/m2
03:13 8 °C -2.9 °C 1018.2 hPa Calm     46% 0 mm 0.0 W/m2
03:18 7.9 °C -2.7 °C 1018.2 hPa Calm     47% 0 mm 0.0 W/m2
03:23 7.9 °C -2.7 °C 1018.2 hPa Calm     47% 0 mm 0.0 W/m2
03:28 7.9 °C -2.7 °C 1018.2 hPa Calm     47% 0 mm 0.0 W/m2
03:33 7.7 °C -2.9 °C 1018.2 hPa Calm     47% 0 mm 0.0 W/m2
03:39 7.6 °C -3.3 °C 1018.2 hPa Calm     46% 0 mm 0.0 W/m2
03:44 7.4 °C -3.2 °C 1018.2 hPa Calm     47% 0 mm 0.0 W/m2
03:54 7.3 °C -3.3 °C 1018.5 hPa Calm     47% 0 mm 0.0 W/m2
03:59 7 °C -3 °C 1018.5 hPa Calm     49% 0 mm 0.0 W/m2
04:05 6.9 °C -2.8 °C 1018.5 hPa Calm     50% 0 mm 0.0 W/m2
04:10 6.8 °C -3.2 °C 1018.5 hPa Calm     49% 0 mm 0.0 W/m2
04:15 6.7 °C -3.3 °C 1018.5 hPa Calm     49% 0 mm 0.0 W/m2
04:20 6.6 °C -3.4 °C 1018.5 hPa Calm     49% 0 mm 0.0 W/m2
04:25 6.6 °C -2.8 °C 1018.5 hPa Calm     51% 0 mm 0.0 W/m2
04:30 6.4 °C -3 °C 1018.5 hPa Calm     51% 0 mm 0.0 W/m2
04:36 6.2 °C -3.5 °C 1018.5 hPa Calm     50% 0 mm 0.0 W/m2
04:41 6.2 °C -3.5 °C 1018.5 hPa Calm     50% 0 mm 0.0 W/m2
04:46 6.1 °C -3 °C 1018.8 hPa Calm     52% 0 mm 0.0 W/m2
04:51 5.8 °C -3.3 °C 1018.8 hPa Calm     52% 0 mm 0.0 W/m2
04:57 5.7 °C -3.1 °C 1018.8 hPa Calm     53% 0 mm 0.0 W/m2
05:02 5.6 °C -3.2 °C 1018.8 hPa Calm     53% 0 mm 0.0 W/m2
05:07 5.7 °C -2.9 °C 1018.8 hPa Calm     54% 0 mm 0.0 W/m2
05:12 5.8 °C -2.8 °C 1019.2 hPa Calm     54% 0 mm 0.0 W/m2
05:17 6 °C -2.6 °C 1019.2 hPa Calm     54% 0 mm 0.0 W/m2
05:22 6.2 °C -2.4 °C 1019.2 hPa Calm     54% 0 mm 0.0 W/m2
05:27 6.2 °C -2.7 °C 1019.5 hPa Calm     53% 0 mm 0.0 W/m2
05:32 6.1 °C -2.8 °C 1019.2 hPa Calm     53% 0 mm 0.0 W/m2
05:37 6.2 °C -2.2 °C 1019.5 hPa Calm     55% 0 mm 0.0 W/m2
05:43 6.5 °C -3.2 °C 1019.5 hPa Calm     50% 0 mm 0.0 W/m2
05:48 6.5 °C -2.7 °C 1019.5 hPa Calm     52% 0 mm 0.0 W/m2
05:54 6.4 °C -3.3 °C 1019.5 hPa Calm     50% 0 mm 0.0 W/m2
06:00 6.5 °C -2.7 °C 1019.5 hPa Calm     52% 0 mm 0.0 W/m2
06:09 6.6 °C -3.1 °C 1019.9 hPa Calm     50% 0 mm 0.0 W/m2
06:14 6.5 °C -3.2 °C 1019.9 hPa Calm     50% 0 mm 0.0 W/m2
06:22 6.2 °C -3.5 °C 1019.9 hPa Calm     50% 0 mm 0.0 W/m2
06:50 6.1 °C -2.5 °C 1020.2 hPa Calm     54% 0 mm 7.0 W/m2
07:06 6.9 °C -2.3 °C 1020.5 hPa Calm     52% 0 mm 16.0 W/m2
07:21 6.9 °C -2 °C 1020.5 hPa Calm     53% 0 mm 21.0 W/m2
07:48 7.8 °C -2 °C 1020.5 hPa Calm     50% 0 mm 130.0 W/m2
08:03 9.6 °C -0.9 °C 1020.5 hPa Calm     48% 0 mm 190.0 W/m2
08:16 10.8 °C -0.4 °C 1020.9 hPa North 13 km/h 17.7 km/h 46% 0 mm 239.0 W/m2
08:24 11.5 °C 0.9 °C 1020.9 hPa NNW 13 km/h 20.9 km/h 48% 0 mm 269.0 W/m2
08:34 11.9 °C 2.6 °C 1020.9 hPa NNW 17.7 km/h 19.3 km/h 53% 0 mm 294.0 W/m2
08:44 12 °C 4 °C 1020.9 hPa NW 22.7 km/h 22.7 km/h 58% 0 mm 320.0 W/m2
08:53 12.1 °C 5 °C 1020.9 hPa NW 19.5 km/h 19.5 km/h 62% 0 mm 345.0 W/m2
08:59 12.2 °C 5.1 °C 1020.9 hPa NW 19.5 km/h 19.5 km/h 62% 0 mm 357.0 W/m2
09:09 12.2 °C 5.6 °C 1020.9 hPa NW 17.7 km/h 19.3 km/h 64% 0 mm 381.0 W/m2
09:19 12.3 °C 6.1 °C 1020.9 hPa NW 16.3 km/h 19.3 km/h 66% 0 mm 404.0 W/m2
09:29 12.6 °C 6 °C 1020.9 hPa NW 19.5 km/h 19.5 km/h 64% 0 mm 424.0 W/m2
09:40 12.9 °C 5.8 °C 1020.9 hPa NW 13 km/h 22.5 km/h 62% 0 mm 443.0 W/m2
09:54 13.6 °C 5.2 °C 1020.9 hPa NW 7.9 km/h 17.7 km/h 57% 0 mm 475.0 W/m2
09:59 13.8 °C 5.4 °C 1020.5 hPa NW 7.9 km/h 12.9 km/h 57% 0 mm 482.0 W/m2
10:04 14.1 °C 5.2 °C 1020.5 hPa NW 13 km/h 19.3 km/h 55% 0 mm 506.0 W/m2
10:10 14.3 °C 5.1 °C 1020.5 hPa NW 11.1 km/h 17.7 km/h 54% 0 mm 497.0 W/m2
10:18 14.5 °C 5.6 °C 1020.5 hPa NW 17.7 km/h 20.9 km/h 55% 0 mm 506.0 W/m2
10:29 14.7 °C 5.8 °C 1020.5 hPa NW 17.7 km/h 19.3 km/h 55% 0 mm 519.0 W/m2
10:45 14.7 °C 6 °C 1020.5 hPa NW 19.5 km/h 22.5 km/h 56% 0 mm 540.0 W/m2
11:00 15.2 °C 5.7 °C 1020.2 hPa NW 13 km/h 19.3 km/h 53% 0 mm 555.0 W/m2
11:14 15.8 °C 5.7 °C 1019.9 hPa NW 22.7 km/h 22.7 km/h 51% 0 mm 564.0 W/m2
11:26 15.9 °C 6.1 °C 1019.9 hPa WNW 19.5 km/h 24.1 km/h 52% 0 mm 573.0 W/m2
11:36 16.1 °C 6 °C 1019.5 hPa WNW 17.7 km/h 24.1 km/h 51% 0 mm 577.0 W/m2
11:45 16.4 °C 5.9 °C 1019.5 hPa WNW 16.3 km/h 20.9 km/h 50% 0 mm 577.0 W/m2
11:50 16.7 °C 5.9 °C 1019.2 hPa WNW 13 km/h 22.5 km/h 49% 0 mm 577.0 W/m2
11:57 16.7 °C 5.9 °C 1019.2 hPa WNW 13 km/h 20.9 km/h 49% 0 mm 578.0 W/m2
12:10 17.1 °C 5.7 °C 1018.8 hPa WNW 11.1 km/h 22.5 km/h 47% 0 mm 577.0 W/m2
12:24 17.4 °C 5.3 °C 1018.5 hPa WNW 17.7 km/h 19.3 km/h 45% 0 mm 571.0 W/m2
12:34 17.8 °C 5.1 °C 1018.5 hPa WNW 16.3 km/h 24.1 km/h 43% 0 mm 568.0 W/m2
12:41 17.9 °C 4.8 °C 1018.2 hPa WNW 16.3 km/h 22.5 km/h 42% 0 mm 559.0 W/m2
12:51 18.2 °C 4.7 °C 1018.2 hPa WNW 16.3 km/h 19.3 km/h 41% 0 mm 548.0 W/m2
12:56 18.3 °C 4.5 °C 1018.2 hPa WNW 19.5 km/h 24.1 km/h 40% 0 mm 547.0 W/m2
13:13 18.6 °C 4.7 °C 1017.8 hPa WNW 17.7 km/h 20.9 km/h 40% 0 mm 527.0 W/m2
13:21 18.9 °C 4.6 °C 1017.5 hPa WNW 19.5 km/h 19.5 km/h 39% 0 mm 513.0 W/m2
13:27 19.2 °C 4.9 °C 1017.5 hPa WNW 19.5 km/h 20.9 km/h 39% 0 mm 504.0 W/m2
13:38 19.5 °C 4.8 °C 1017.5 hPa West 20.9 km/h 22.5 km/h 38% 0 mm 490.0 W/m2
13:58 19.6 °C 4.5 °C 1017.5 hPa West 17.7 km/h 25.7 km/h 37% 0 mm 455.0 W/m2
14:10 19.7 °C 4.2 °C 1017.2 hPa West 20.9 km/h 24.1 km/h 36% 0 mm 434.0 W/m2
14:25 19.8 °C 4.3 °C 1017.2 hPa West 17.7 km/h 22.5 km/h 36% 0 mm 403.0 W/m2
14:55 20 °C 3.7 °C 1017.2 hPa West 14.3 km/h 20.9 km/h 34% 0 mm 332.0 W/m2
15:10 20 °C 3.7 °C 1017.2 hPa West 17.7 km/h 22.5 km/h 34% 0 mm 292.0 W/m2
15:28 19.9 °C 3.6 °C 1017.2 hPa West 19.5 km/h 25.7 km/h 34% 0 mm 237.0 W/m2
15:34 20 °C 3.7 °C 1017.2 hPa West 20.9 km/h 25.7 km/h 34% 0 mm 221.0 W/m2
15:43 20 °C 3.7 °C 1017.2 hPa West 19.5 km/h 25.7 km/h 34% 0 mm 190.0 W/m2
15:51 19.9 °C 3.6 °C 1017.5 hPa West 17.7 km/h 22.5 km/h 34% 0 mm 156.0 W/m2
15:57 19.8 °C 3.5 °C 1017.2 hPa West 19.5 km/h 22.5 km/h 34% 0 mm 139.0 W/m2
16:02 19.7 °C 3.4 °C 1017.2 hPa WSW 22.7 km/h 25.7 km/h 34% 0 mm 121.0 W/m2
16:14 19.5 °C 3.2 °C 1017.2 hPa WSW 16.3 km/h 25.7 km/h 34% 0 mm 90.0 W/m2
16:25 19.4 °C 3.1 °C 1017.2 hPa WSW 14.3 km/h 19.3 km/h 34% 0 mm 60.0 W/m2
16:53 18.6 °C 3.2 °C 1017.5 hPa WSW 19.5 km/h 25.7 km/h 36% 0 mm 12.0 W/m2
17:07 17.9 °C 3.4 °C 1017.5 hPa WSW 19.5 km/h 20.9 km/h 38% 0 mm 5.0 W/m2
17:20 17.4 °C 3.7 °C 1017.5 hPa WSW 17.7 km/h 22.5 km/h 40% 0 mm 0.0 W/m2
18:03 16.2 °C 3.6 °C 1018.2 hPa WSW 7.9 km/h 14.5 km/h 43% 0 mm 0.0 W/m2
18:17 15.7 °C 3.8 °C 1018.5 hPa WSW 13 km/h 14.5 km/h 45% 0 mm 0.0 W/m2
18:31 15.3 °C 3.7 °C 1018.5 hPa WSW 7.9 km/h 12.9 km/h 46% 0 mm 0.0 W/m2
18:40 15.1 °C 3.6 °C 1018.5 hPa WSW 11.1 km/h 12.9 km/h 46% 0 mm 0.0 W/m2
18:50 14.8 °C 3.6 °C 1018.5 hPa WSW 7.9 km/h 9.7 km/h 47% 0 mm 0.0 W/m2
19:00 14.4 °C 3.5 °C 1018.8 hPa WSW 9.7 km/h 9.7 km/h 48% 0 mm 0.0 W/m2
19:12 14.1 °C 3.5 °C 1018.8 hPa WSW 6.4 km/h 9.7 km/h 49% 0 mm 0.0 W/m2
19:27 13.4 °C 3.2 °C 1018.5 hPa WSW 6.4 km/h 8 km/h 50% 0 mm 0.0 W/m2
19:56 12.9 °C 3.3 °C 1018.8 hPa WSW 4.7 km/h 9.7 km/h 52% 0 mm 0.0 W/m2
20:06 12.5 °C 2.9 °C 1018.5 hPa WSW 7.9 km/h 9.7 km/h 52% 0 mm 0.0 W/m2
20:16 12.3 °C 2.7 °C 1018.8 hPa WSW 4.7 km/h 6.4 km/h 52% 0 mm 0.0 W/m2
20:26 11.8 °C 2.5 °C 1018.5 hPa Calm     53% 0 mm 0.0 W/m2
20:35 11.5 °C 2.2 °C 1018.5 hPa Calm     53% 0 mm 0.0 W/m2
20:45 11.2 °C 1.7 °C 1018.5 hPa Calm     52% 0 mm 0.0 W/m2
20:56 10.9 °C 1.7 °C 1018.5 hPa Calm     53% 0 mm 0.0 W/m2
21:02 10.7 °C 1.5 °C 1018.5 hPa Calm     53% 0 mm 0.0 W/m2
21:12 10.6 °C 1.4 °C 1018.5 hPa Calm     53% 0 mm 0.0 W/m2
21:21 10.3 °C 1.1 °C 1018.5 hPa Calm     53% 0 mm 0.0 W/m2
21:31 10.1 °C 1.2 °C 1018.5 hPa Calm     54% 0 mm 0.0 W/m2
21:36 10.1 °C 0.9 °C 1018.5 hPa Calm     53% 0 mm 0.0 W/m2
21:41 10.1 °C 0.9 °C 1018.5 hPa Calm     53% 0 mm 0.0 W/m2
21:47 10.1 °C 0.9 °C 1018.5 hPa Calm     53% 0 mm 0.0 W/m2
21:52 10.1 °C 0.7 °C 1018.5 hPa Calm     52% 0 mm 0.0 W/m2
21:57 10.2 °C 0.8 °C 1018.5 hPa Calm     52% 0 mm 0.0 W/m2
22:02 10.1 °C 0.7 °C 1018.5 hPa Calm     52% 0 mm 0.0 W/m2
22:13 10 °C 0.9 °C 1018.5 hPa Calm     53% 0 mm 0.0 W/m2
22:18 10.1 °C 0.7 °C 1018.5 hPa Calm     52% 0 mm 0.0 W/m2
22:23 10.2 °C 0.8 °C 1018.5 hPa Calm     52% 0 mm 0.0 W/m2
22:28 10.3 °C 0.6 °C 1018.5 hPa Calm     51% 0 mm 0.0 W/m2
22:33 10.4 °C 0.4 °C 1018.5 hPa Calm     50% 0 mm 0.0 W/m2
22:39 10.3 °C 0.3 °C 1018.5 hPa Calm     50% 0 mm 0.0 W/m2
22:44 10.2 °C 0.2 °C 1018.5 hPa Calm     50% 0 mm 0.0 W/m2
22:49 10.2 °C 0.2 °C 1018.5 hPa Calm     50% 0 mm 0.0 W/m2
22:54 10.1 °C 0.1 °C 1018.5 hPa Calm     50% 0 mm 0.0 W/m2
23:04 9.8 °C -0.1 °C 1018.2 hPa Calm     50% 0 mm 0.0 W/m2
23:14 9.8 °C -0.4 °C 1018.2 hPa Calm     49% 0 mm 0.0 W/m2
23:20 9.8 °C -0.1 °C 1018.2 hPa Calm     50% 0 mm 0.0 W/m2
23:25 9.7 °C -0.5 °C 1018.2 hPa Calm     49% 0 mm 0.0 W/m2
23:30 9.7 °C -0.2 °C 1018.2 hPa Calm     50% 0 mm 0.0 W/m2
23:35 9.8 °C -0.1 °C 1018.2 hPa Calm     50% 0 mm 0.0 W/m2
23:41 9.8 °C -0.4 °C 1018.2 hPa Calm     49% 0 mm 0.0 W/m2
23:46 9.6 °C -0.6 °C 1018.2 hPa Calm     49% 0 mm 0.0 W/m2
23:51 9.4 °C -0.5 °C 1018.2 hPa Calm     50% 0 mm 0.0 W/m2
23:56 9.3 °C -0.6 °C 1018.2 hPa Calm     50% 0 mm 0.0 W/m2
Canyon Roadhouse, Fishriver Canyon, Namibia
Compliments of Weather Underground - 2.5 mb